createdAt,value
2023-01-20T00:01:04.132Z,1.7
2023-01-20T00:02:13.834Z,1.8
2023-01-20T00:03:22.562Z,2.1
2023-01-20T00:04:32.244Z,2.3
2023-01-20T00:05:40.934Z,2.6
2023-01-20T00:06:50.645Z,2.6
2023-01-20T00:08:00.377Z,1.7
2023-01-20T00:09:08.083Z,2.1
2023-01-20T00:10:15.750Z,2.1
2023-01-20T00:11:24.456Z,2.4
2023-01-20T00:12:33.207Z,2.3
2023-01-20T00:13:42.893Z,2.3
2023-01-20T00:14:51.581Z,2.7
2023-01-20T00:16:00.346Z,2
2023-01-20T00:17:10.032Z,1.8
2023-01-20T00:18:18.753Z,2.5
2023-01-20T00:19:27.440Z,2
2023-01-20T00:20:36.110Z,2.4
2023-01-20T00:21:45.806Z,2.3
2023-01-20T00:22:55.540Z,2.4
2023-01-20T00:24:04.206Z,1.3
2023-01-20T00:25:13.283Z,2.6
2023-01-20T00:26:23.675Z,2
2023-01-20T00:27:32.329Z,1.6
2023-01-20T00:28:42.070Z,1.8
2023-01-20T00:29:51.805Z,2.2
2023-01-20T00:31:00.614Z,2.3
2023-01-20T00:32:10.155Z,2.4
2023-01-20T00:33:18.855Z,1.4
2023-01-20T00:34:27.538Z,1.8
2023-01-20T00:35:37.258Z,1.8
2023-01-20T00:36:45.952Z,1.9
2023-01-20T00:37:55.652Z,1.8
2023-01-20T00:39:04.321Z,1.4
2023-01-20T00:40:13.012Z,1.6
2023-01-20T00:41:22.733Z,2
2023-01-20T00:42:30.411Z,1.3
2023-01-20T00:43:40.103Z,1.7
2023-01-20T00:44:48.798Z,1.2
2023-01-20T00:45:57.485Z,1.2
2023-01-20T00:47:07.195Z,1.1
2023-01-20T00:48:14.882Z,1.4
2023-01-20T00:49:23.644Z,1.8
2023-01-20T00:50:33.372Z,1.2
2023-01-20T00:51:41.112Z,1.5
2023-01-20T00:52:50.877Z,1.2
2023-01-20T00:53:59.581Z,1.4
2023-01-20T00:55:07.260Z,1.3
2023-01-20T00:56:16.950Z,1.4
2023-01-20T00:57:25.629Z,1.7
2023-01-20T00:58:35.322Z,1
2023-01-20T00:59:44.012Z,1.6
2023-01-20T01:00:53.784Z,1.4
2023-01-20T01:02:04.525Z,1.1
2023-01-20T01:03:14.125Z,1.2
2023-01-20T01:04:21.846Z,1.4
2023-01-20T01:05:31.537Z,1.3
2023-01-20T01:06:39.269Z,1.2
2023-01-20T01:07:47.994Z,1.5
2023-01-20T01:08:57.711Z,1.5
2023-01-20T01:10:06.469Z,1.3
2023-01-20T01:11:16.186Z,1
2023-01-20T01:12:24.889Z,1.6
2023-01-20T01:13:33.606Z,1.2
2023-01-20T01:14:43.333Z,1.2
2023-01-20T01:15:52.099Z,0.9
2023-01-20T01:17:00.868Z,1.3
2023-01-20T01:18:10.596Z,1.4
2023-01-20T01:19:19.351Z,1.3
2023-01-20T01:20:28.047Z,1.3
2023-01-20T01:21:36.843Z,1.4
2023-01-20T01:22:44.571Z,0.9
2023-01-20T01:23:54.297Z,1.7
2023-01-20T01:25:01.994Z,1.3
2023-01-20T01:26:11.700Z,1.5
2023-01-20T01:27:21.417Z,1.2
2023-01-20T01:28:30.132Z,1.7
2023-01-20T01:29:39.869Z,1.2
2023-01-20T01:30:49.607Z,1.2
2023-01-20T01:31:58.236Z,1.2
2023-01-20T01:33:08.009Z,1
2023-01-20T01:34:16.684Z,1.6
2023-01-20T01:35:26.452Z,1.1
2023-01-20T01:36:36.171Z,1.5
2023-01-20T01:37:43.852Z,1.2
2023-01-20T01:38:57.276Z,1.1
2023-01-20T01:40:02.252Z,1.2
2023-01-20T01:41:09.944Z,1.3
2023-01-20T01:42:19.666Z,1.3
2023-01-20T01:43:27.422Z,1.4
2023-01-20T01:44:36.210Z,1
2023-01-20T01:45:46.015Z,0.9
2023-01-20T01:46:54.659Z,0.7
2023-01-20T01:48:04.355Z,1.1
2023-01-20T01:49:13.093Z,1.5
2023-01-20T01:50:21.828Z,1.2
2023-01-20T01:51:31.549Z,1.2
2023-01-20T01:52:39.258Z,1.3
2023-01-20T01:53:48.971Z,1.2
2023-01-20T01:54:57.701Z,1.4
2023-01-20T01:56:05.405Z,1.4
2023-01-20T01:57:15.126Z,1.6
2023-01-20T01:58:23.837Z,1.1
2023-01-20T01:59:32.556Z,1.5
2023-01-20T02:00:42.311Z,1.2
2023-01-20T02:01:51.125Z,1.7
2023-01-20T02:02:59.701Z,1.5
2023-01-20T02:04:09.407Z,1.1
2023-01-20T02:05:18.451Z,1.3
2023-01-20T02:06:27.852Z,1.3
2023-01-20T02:07:36.553Z,1.3
2023-01-20T02:08:44.232Z,1.2
2023-01-20T02:09:53.965Z,1.3
2023-01-20T02:11:01.674Z,1
2023-01-20T02:12:10.378Z,1.7
2023-01-20T02:13:20.081Z,1.5
2023-01-20T02:14:28.792Z,1.4
2023-01-20T02:15:38.488Z,1.4
2023-01-20T02:16:47.206Z,1.7
2023-01-20T02:17:54.943Z,1.3
2023-01-20T02:19:04.699Z,1.4
2023-01-20T02:20:12.402Z,2
2023-01-20T02:21:21.118Z,1.8
2023-01-20T02:22:30.791Z,1.3
2023-01-20T02:23:38.479Z,1.7
2023-01-20T02:24:48.185Z,1.5
2023-01-20T02:25:56.907Z,1.4
2023-01-20T02:27:04.596Z,1.8
2023-01-20T02:28:14.321Z,1.7
2023-01-20T02:29:22.005Z,1.5
2023-01-20T02:30:30.755Z,1.9
2023-01-20T02:31:40.433Z,1.7
2023-01-20T02:32:47.121Z,1.7
2023-01-20T02:33:55.857Z,1.5
2023-01-20T02:35:04.571Z,1.5
2023-01-20T02:36:14.302Z,2
2023-01-20T02:37:23.022Z,1
2023-01-20T02:38:31.723Z,1.3
2023-01-20T02:39:41.464Z,1.6
2023-01-20T02:40:49.163Z,1.6
2023-01-20T02:41:57.903Z,1.9
2023-01-20T02:43:07.582Z,1.5
2023-01-20T02:44:15.254Z,1.7
2023-01-20T02:45:24.999Z,1.2
2023-01-20T02:46:32.662Z,1.5
2023-01-20T02:47:40.392Z,1.2
2023-01-20T02:48:50.119Z,1.6
2023-01-20T02:49:57.817Z,1.5
2023-01-20T02:51:06.513Z,1.6
2023-01-20T02:52:16.197Z,1.1
2023-01-20T02:53:24.983Z,1.2
2023-01-20T02:54:34.658Z,1.8
2023-01-20T02:55:43.383Z,1.4
2023-01-20T02:56:51.124Z,1.6
2023-01-20T02:58:00.821Z,1.2
2023-01-20T02:59:08.576Z,1.3
2023-01-20T03:00:17.261Z,1.4
2023-01-20T03:01:26.992Z,1.6
2023-01-20T03:02:35.684Z,1.5
2023-01-20T03:03:45.489Z,1.3
2023-01-20T03:04:54.089Z,1.8
2023-01-20T03:06:01.843Z,1.3
2023-01-20T03:07:11.494Z,1.7
2023-01-20T03:08:20.185Z,1.3
2023-01-20T03:09:29.947Z,1.6
2023-01-20T03:10:39.636Z,1.1
2023-01-20T03:11:47.310Z,1.5
2023-01-20T03:12:57.051Z,1.7
2023-01-20T03:14:05.764Z,2
2023-01-20T03:15:14.614Z,1
2023-01-20T03:16:24.249Z,1.1
2023-01-20T03:17:32.882Z,1.4
2023-01-20T03:18:41.657Z,1
2023-01-20T03:19:51.358Z,1.3
2023-01-20T03:20:59.068Z,1.3
2023-01-20T03:22:08.790Z,1.4
2023-01-20T03:23:17.510Z,1.5
2023-01-20T03:24:26.202Z,1
2023-01-20T03:25:35.931Z,1.5
2023-01-20T03:26:45.586Z,1.1
2023-01-20T03:27:55.334Z,1.5
2023-01-20T03:29:05.049Z,1.2
2023-01-20T03:30:12.742Z,1.4
2023-01-20T03:31:22.650Z,1.4
2023-01-20T03:32:31.123Z,1.5
2023-01-20T03:33:39.818Z,1.9
2023-01-20T03:34:49.527Z,1.6
2023-01-20T03:35:56.206Z,1.2
2023-01-20T03:37:04.889Z,1.2
2023-01-20T03:38:14.601Z,1.5
2023-01-20T03:39:23.300Z,1.9
2023-01-20T03:40:32.988Z,1.4
2023-01-20T03:41:41.712Z,1.7
2023-01-20T03:42:50.376Z,1.8
2023-01-20T03:44:00.079Z,1.4
2023-01-20T03:45:08.755Z,1.6
2023-01-20T03:46:18.457Z,2.4
2023-01-20T03:47:28.139Z,1.4
2023-01-20T03:48:37.814Z,2
2023-01-20T03:49:47.502Z,2.5
2023-01-20T03:50:56.190Z,2.1
2023-01-20T03:52:03.885Z,1.6
2023-01-20T03:53:13.575Z,1.4
2023-01-20T03:54:21.255Z,1.4
2023-01-20T03:55:29.914Z,1.5
2023-01-20T03:56:39.635Z,1.8
2023-01-20T03:57:48.343Z,2.1
2023-01-20T03:58:58.017Z,1.7
2023-01-20T04:00:06.725Z,1.9
2023-01-20T04:01:18.243Z,2.3
2023-01-20T04:02:27.284Z,1.5
2023-01-20T04:03:34.849Z,1.7
2023-01-20T04:04:43.482Z,1.8
2023-01-20T04:05:53.197Z,1.9
2023-01-20T04:07:02.849Z,1.3
2023-01-20T04:08:12.978Z,1.4
2023-01-20T04:09:21.573Z,1.4
2023-01-20T04:10:31.591Z,1
2023-01-20T04:11:41.285Z,1.4
2023-01-20T04:12:48.944Z,1
2023-01-20T04:13:58.663Z,1.5
2023-01-20T04:15:08.406Z,1.7
2023-01-20T04:16:17.093Z,1.4
2023-01-20T04:17:26.794Z,1.6
2023-01-20T04:18:36.479Z,1.5
2023-01-20T04:19:44.191Z,1.4
2023-01-20T04:20:53.940Z,1.8
2023-01-20T04:22:02.860Z,1.5
2023-01-20T04:23:11.552Z,1.3
2023-01-20T04:24:21.301Z,1.7
2023-01-20T04:25:29.044Z,1.6
2023-01-20T04:26:38.738Z,1.6
2023-01-20T04:27:47.413Z,2.1
2023-01-20T04:28:55.137Z,1.6
2023-01-20T04:30:04.875Z,1.7
2023-01-20T04:31:28.893Z,1.4
2023-01-20T04:32:25.228Z,1.3
2023-01-20T04:33:33.914Z,1.2
2023-01-20T04:34:42.634Z,0.9
2023-01-20T04:35:52.291Z,1
2023-01-20T04:36:59.976Z,1
2023-01-20T04:38:09.675Z,1.1
2023-01-20T04:39:19.374Z,1.2
2023-01-20T04:40:28.049Z,1.4
2023-01-20T04:41:36.732Z,1.2
2023-01-20T04:42:44.496Z,1.2
2023-01-20T04:43:53.230Z,0.8
2023-01-20T04:45:02.909Z,1.1
2023-01-20T04:46:11.648Z,1.3
2023-01-20T04:47:21.297Z,0.6
2023-01-20T04:48:30.012Z,1.3
2023-01-20T04:49:37.756Z,1.2
2023-01-20T04:50:47.458Z,1.7
2023-01-20T04:51:56.178Z,1.3
2023-01-20T04:53:04.838Z,1.1
2023-01-20T04:54:14.537Z,1.5
2023-01-20T04:55:23.255Z,1.4
2023-01-20T04:56:32.937Z,1
2023-01-20T04:57:42.631Z,0.9
2023-01-20T04:58:52.318Z,1.3
2023-01-20T05:00:02.086Z,1.2
2023-01-20T05:01:09.910Z,1.1
2023-01-20T05:02:26.673Z,1.1
2023-01-20T05:03:35.243Z,1.2
2023-01-20T05:04:43.904Z,1.4
2023-01-20T05:05:52.623Z,1.4
2023-01-20T05:07:02.344Z,1.3
2023-01-20T05:08:10.014Z,1.6
2023-01-20T05:09:19.693Z,1.8
2023-01-20T05:10:29.482Z,2.1
2023-01-20T05:11:38.276Z,2
2023-01-20T05:12:48.125Z,2
2023-01-20T05:13:57.820Z,2.1
2023-01-20T05:15:07.518Z,1.4
2023-01-20T05:16:17.409Z,1.6
2023-01-20T05:17:25.101Z,1.2
2023-01-20T05:18:34.800Z,1
2023-01-20T05:19:44.523Z,1
2023-01-20T05:20:52.136Z,1.3
2023-01-20T05:22:01.849Z,1.6
2023-01-20T05:23:11.584Z,1.9
2023-01-20T05:24:20.306Z,1.6
2023-01-20T05:25:30.040Z,1.2
2023-01-20T05:26:38.819Z,1.7
2023-01-20T05:27:47.564Z,1.7
2023-01-20T05:28:57.490Z,1.3
2023-01-20T05:30:07.572Z,1.4
2023-01-20T05:31:17.270Z,1.7
2023-01-20T05:32:25.852Z,2
2023-01-20T05:33:34.524Z,2.2
2023-01-20T05:34:44.234Z,1.9
2023-01-20T05:35:55.109Z,1.6
2023-01-20T05:37:02.544Z,1.7
2023-01-20T05:38:12.259Z,2
2023-01-20T05:39:21.066Z,1.8
2023-01-20T05:40:30.761Z,2
2023-01-20T05:41:40.462Z,1.2
2023-01-20T05:42:49.136Z,1.4
2023-01-20T05:43:58.869Z,2.3
2023-01-20T05:45:07.604Z,2
2023-01-20T05:46:17.387Z,1.9
2023-01-20T05:47:27.069Z,2.2
2023-01-20T05:48:35.755Z,2.2
2023-01-20T05:49:45.438Z,1.7
2023-01-20T05:50:55.211Z,2.6
2023-01-20T05:52:02.943Z,2.3
2023-01-20T05:53:12.620Z,1.7
2023-01-20T05:54:21.356Z,2.2
2023-01-20T05:55:31.039Z,2.6
2023-01-20T05:56:40.839Z,1.7
2023-01-20T05:57:50.615Z,2.1
2023-01-20T05:59:00.303Z,2.4
2023-01-20T06:00:08.982Z,2.5
2023-01-20T06:01:17.688Z,1.8
2023-01-20T06:02:27.375Z,2.9
2023-01-20T06:03:35.192Z,1.7
2023-01-20T06:04:43.835Z,1.8
2023-01-20T06:05:53.730Z,1.9
2023-01-20T06:07:02.469Z,1.5
2023-01-20T06:08:12.146Z,1.8
2023-01-20T06:09:20.876Z,1.7
2023-01-20T06:10:30.576Z,1.6
2023-01-20T06:11:40.288Z,1.8
2023-01-20T06:12:47.967Z,2.1
2023-01-20T06:13:57.718Z,2
2023-01-20T06:15:07.622Z,2.4
2023-01-20T06:16:16.366Z,1.5
2023-01-20T06:17:26.002Z,2.4
2023-01-20T06:18:34.656Z,1.7
2023-01-20T06:19:43.336Z,1.9
2023-01-20T06:20:53.132Z,1.9
2023-01-20T06:22:02.837Z,2.1
2023-01-20T06:23:12.525Z,1.5
2023-01-20T06:24:21.205Z,2
2023-01-20T06:25:29.882Z,1.7
2023-01-20T06:26:39.589Z,1.9
2023-01-20T06:27:49.260Z,2.1
2023-01-20T06:28:58.931Z,2
2023-01-20T06:30:08.600Z,2.5
2023-01-20T06:31:17.561Z,2
2023-01-20T06:32:27.069Z,2
2023-01-20T06:33:34.756Z,2.1
2023-01-20T06:34:44.399Z,2
2023-01-20T06:35:53.060Z,2.1
2023-01-20T06:36:59.712Z,1.8
2023-01-20T06:38:09.460Z,2.1
2023-01-20T06:39:19.147Z,2.5
2023-01-20T06:40:26.772Z,2.4
2023-01-20T06:41:36.454Z,2
2023-01-20T06:42:44.195Z,2.5
2023-01-20T06:43:52.877Z,2.6
2023-01-20T06:45:02.534Z,1.5
2023-01-20T06:46:10.231Z,2.7
2023-01-20T06:47:18.849Z,1.8
2023-01-20T06:48:27.563Z,1.8
2023-01-20T06:49:36.281Z,1.9
2023-01-20T06:50:46.004Z,2.4
2023-01-20T06:51:53.652Z,1.7
2023-01-20T06:53:03.363Z,1.8
2023-01-20T06:54:13.030Z,1.7
2023-01-20T06:55:21.734Z,1.9
2023-01-20T06:56:31.453Z,1.6
2023-01-20T06:57:41.151Z,1.5
2023-01-20T06:58:48.804Z,1.9
2023-01-20T06:59:58.483Z,2.3
2023-01-20T07:01:06.421Z,2
2023-01-20T07:02:15.107Z,1.7
2023-01-20T07:03:24.735Z,1.8
2023-01-20T07:04:32.391Z,1.6
2023-01-20T07:05:42.067Z,1.9
2023-01-20T07:06:50.781Z,2
2023-01-20T07:07:59.487Z,2
2023-01-20T07:09:09.164Z,1.6
2023-01-20T07:10:16.885Z,2
2023-01-20T07:11:26.590Z,1.5
2023-01-20T07:12:36.269Z,2.1
2023-01-20T07:13:45.952Z,2.2
2023-01-20T07:14:55.623Z,1.8
2023-01-20T07:16:04.361Z,1.7
2023-01-20T07:17:13.000Z,1.6
2023-01-20T07:18:22.883Z,1.9
2023-01-20T07:19:32.562Z,1.8
2023-01-20T07:20:41.236Z,1.6
2023-01-20T07:21:50.906Z,1.7
2023-01-20T07:23:00.658Z,1.9
2023-01-20T07:24:10.349Z,1.7
2023-01-20T07:25:20.028Z,1.8
2023-01-20T07:26:28.716Z,1.4
2023-01-20T07:27:38.528Z,1.7
2023-01-20T07:28:47.168Z,1.6
2023-01-20T07:29:56.893Z,1.2
2023-01-20T07:31:06.560Z,2.4
2023-01-20T07:32:15.266Z,1.4
2023-01-20T07:33:24.930Z,1.7
2023-01-20T07:34:33.586Z,1.8
2023-01-20T07:35:43.298Z,2
2023-01-20T07:36:52.973Z,2
2023-01-20T07:38:00.632Z,1.3
2023-01-20T07:39:10.305Z,1.5
2023-01-20T07:40:20.020Z,1.4
2023-01-20T07:41:27.733Z,1.1
2023-01-20T07:42:37.411Z,1.2
2023-01-20T07:43:47.119Z,1
2023-01-20T07:44:55.781Z,1.4
2023-01-20T07:46:05.500Z,1.4
2023-01-20T07:47:14.194Z,1.8
2023-01-20T07:48:22.884Z,1.2
2023-01-20T07:49:31.690Z,2
2023-01-20T07:50:41.387Z,1.5
2023-01-20T07:51:50.070Z,1.4
2023-01-20T07:52:59.824Z,1.4
2023-01-20T07:54:08.572Z,1.7
2023-01-20T07:55:17.488Z,1.6
2023-01-20T07:56:25.987Z,1.4
2023-01-20T07:57:34.689Z,1.6
2023-01-20T07:58:44.443Z,1.7
2023-01-20T07:59:54.159Z,1.9
2023-01-20T08:01:02.962Z,2.4
2023-01-20T08:02:12.482Z,1.7
2023-01-20T08:03:21.151Z,2.1
2023-01-20T08:04:28.884Z,1.7
2023-01-20T08:05:38.542Z,1.6
2023-01-20T08:06:46.264Z,1.8
2023-01-20T08:07:54.988Z,1.8
2023-01-20T08:09:04.642Z,1.6
2023-01-20T08:10:13.381Z,1.9
2023-01-20T08:11:23.054Z,1.7
2023-01-20T08:12:31.954Z,1.7
2023-01-20T08:13:41.626Z,1.4
2023-01-20T08:14:51.297Z,1.6
2023-01-20T08:16:00.093Z,1.6
2023-01-20T08:17:09.751Z,1.8
2023-01-20T08:18:19.559Z,1.8
2023-01-20T08:19:28.248Z,2
2023-01-20T08:20:37.983Z,1.7
2023-01-20T08:21:46.662Z,1.9
2023-01-20T08:22:54.368Z,2.5
2023-01-20T08:24:04.078Z,2
2023-01-20T08:25:11.721Z,2.1
2023-01-20T08:26:21.463Z,2
2023-01-20T08:27:31.185Z,2
2023-01-20T08:28:42.425Z,2.6
2023-01-20T08:29:52.156Z,2.9
2023-01-20T08:31:00.916Z,2
2023-01-20T08:32:10.605Z,2.8
2023-01-20T08:33:19.296Z,2.1
2023-01-20T08:34:27.029Z,2.3
2023-01-20T08:35:36.800Z,2.2
2023-01-20T08:36:45.507Z,1.9
2023-01-20T08:37:54.241Z,2.6
2023-01-20T08:39:03.939Z,2.3
2023-01-20T08:40:13.680Z,2.2
2023-01-20T08:41:23.342Z,2.2
2023-01-20T08:42:33.012Z,2.2
2023-01-20T08:43:41.683Z,2.3
2023-01-20T08:44:51.393Z,2.2
2023-01-20T08:45:59.075Z,2.5
2023-01-20T08:47:08.684Z,2.2
2023-01-20T08:48:18.441Z,2.3
2023-01-20T08:49:27.025Z,2.6
2023-01-20T08:50:36.752Z,2.4
2023-01-20T08:51:45.441Z,2.5
2023-01-20T08:52:55.096Z,2.2
2023-01-20T08:54:04.768Z,2.6
2023-01-20T08:55:14.655Z,2
2023-01-20T08:56:24.137Z,2.8
2023-01-20T08:57:33.797Z,2.5
2023-01-20T08:58:41.450Z,2.3
2023-01-20T08:59:51.110Z,2
2023-01-20T09:00:59.829Z,2.1
2023-01-20T09:02:07.475Z,2.3
2023-01-20T09:03:17.120Z,1.8
2023-01-20T09:04:25.833Z,2.1
2023-01-20T09:05:34.461Z,1.9
2023-01-20T09:06:44.131Z,2
2023-01-20T09:07:51.780Z,1.8
2023-01-20T09:09:03.325Z,2.2
2023-01-20T09:10:11.154Z,1.9
2023-01-20T09:11:19.853Z,1.7
2023-01-20T09:12:29.479Z,1.7
2023-01-20T09:13:37.168Z,2.2
2023-01-20T09:14:46.825Z,2.2
2023-01-20T09:15:56.533Z,1.9
2023-01-20T09:17:05.132Z,2
2023-01-20T09:18:14.787Z,2.6
2023-01-20T09:19:24.495Z,2.2
2023-01-20T09:20:32.159Z,2.4
2023-01-20T09:21:41.803Z,1.6
2023-01-20T09:22:50.445Z,2.2
2023-01-20T09:24:00.163Z,1.5
2023-01-20T09:25:09.803Z,2.1
2023-01-20T09:26:34.111Z,1.9
2023-01-20T09:27:30.092Z,1.6
2023-01-20T09:28:39.745Z,1.8
2023-01-20T09:29:48.422Z,2.1
2023-01-20T09:30:58.173Z,1.5
2023-01-20T09:32:06.812Z,2
2023-01-20T09:33:15.417Z,1.9
2023-01-20T09:34:25.126Z,2
2023-01-20T09:35:33.846Z,2.4
2023-01-20T09:36:43.495Z,2.2
2023-01-20T09:37:56.222Z,2.1
2023-01-20T09:39:04.846Z,2.2
2023-01-20T09:40:14.755Z,2.5
2023-01-20T09:41:22.152Z,2
2023-01-20T09:42:30.896Z,2
2023-01-20T09:43:40.759Z,1.7
2023-01-20T09:44:49.492Z,1.6
2023-01-20T09:45:59.165Z,1.6
2023-01-20T09:47:09.419Z,2.3
2023-01-20T09:48:21.251Z,2
2023-01-20T09:49:32.659Z,1.9
2023-01-20T09:50:45.316Z,2.4
2023-01-20T09:51:56.359Z,2.2
2023-01-20T09:53:07.503Z,2.2
2023-01-20T09:54:18.610Z,2.2
2023-01-20T09:55:29.763Z,2
2023-01-20T09:56:41.454Z,2.2
2023-01-20T09:57:54.328Z,2
2023-01-20T09:59:03.957Z,2.3
2023-01-20T10:00:15.259Z,2
2023-01-20T10:01:23.800Z,1.8
2023-01-20T10:02:33.375Z,1.6
2023-01-20T10:03:42.079Z,1.7
2023-01-20T10:04:51.725Z,1.4
2023-01-20T10:06:01.393Z,2.1
2023-01-20T10:07:09.026Z,2.1
2023-01-20T10:08:18.743Z,1.6
2023-01-20T10:09:26.399Z,1.6
2023-01-20T10:10:36.105Z,1.2
2023-01-20T10:11:45.774Z,1.1
2023-01-20T10:12:54.494Z,1.2
2023-01-20T10:14:04.158Z,1.4
2023-01-20T10:15:12.802Z,1.7
2023-01-20T10:16:21.502Z,1.2
2023-01-20T10:17:31.143Z,1.5
2023-01-20T10:18:38.806Z,1.4
2023-01-20T10:19:46.435Z,1.2
2023-01-20T10:20:56.099Z,1.2
2023-01-20T10:22:04.790Z,1.7
2023-01-20T10:23:14.452Z,1.3
2023-01-20T10:24:23.099Z,1.3
2023-01-20T10:25:32.764Z,1.1
2023-01-20T10:26:42.432Z,1.2
2023-01-20T10:27:51.100Z,1.4
2023-01-20T10:29:00.768Z,1.6
2023-01-20T10:30:09.417Z,1.5
2023-01-20T10:31:21.232Z,1.7
2023-01-20T10:32:30.706Z,1.7
2023-01-20T10:33:38.420Z,1.6
2023-01-20T10:34:48.086Z,1.6
2023-01-20T10:35:57.753Z,1.8
2023-01-20T10:37:07.485Z,1.4
2023-01-20T10:38:17.131Z,1.3
2023-01-20T10:39:25.800Z,1.4
2023-01-20T10:40:35.600Z,1.7
2023-01-20T10:41:44.153Z,1.5
2023-01-20T10:42:52.806Z,1.6
2023-01-20T10:44:02.508Z,1.5
2023-01-20T10:45:12.185Z,1.8
2023-01-20T10:46:21.004Z,1.6
2023-01-20T10:47:29.726Z,1.4
2023-01-20T10:48:39.419Z,1.2
2023-01-20T10:49:48.076Z,1.4
2023-01-20T10:50:57.915Z,1.1
2023-01-20T10:52:06.602Z,1.3
2023-01-20T10:53:16.314Z,1.4
2023-01-20T10:54:26.004Z,1.1
2023-01-20T10:55:35.667Z,1.3
2023-01-20T10:56:45.343Z,1.2
2023-01-20T10:57:54.649Z,1.6
2023-01-20T10:59:03.690Z,1.1
2023-01-20T11:00:13.717Z,1.5
2023-01-20T11:01:22.097Z,1.3
2023-01-20T11:02:32.615Z,1.4
2023-01-20T11:03:42.173Z,1.7
2023-01-20T11:04:55.277Z,1.3
2023-01-20T11:06:06.297Z,1.3
2023-01-20T11:07:15.174Z,1.6
2023-01-20T11:08:26.853Z,1.4
2023-01-20T11:09:38.061Z,1.3
2023-01-20T11:10:50.033Z,1
2023-01-20T11:12:12.795Z,1.3
2023-01-20T11:13:24.872Z,1.4
2023-01-20T11:14:36.924Z,0.9
2023-01-20T11:15:47.701Z,1
2023-01-20T11:16:57.136Z,1.4
2023-01-20T11:18:07.887Z,1.5
2023-01-20T11:19:19.310Z,1.2
2023-01-20T11:20:30.451Z,1.6
2023-01-20T11:21:40.113Z,1.6
2023-01-20T11:22:48.751Z,1.4
2023-01-20T11:23:58.468Z,1.5
2023-01-20T11:25:08.114Z,1.8
2023-01-20T11:26:16.870Z,1.4
2023-01-20T11:27:26.836Z,1.7
2023-01-20T11:28:36.475Z,1.6
2023-01-20T11:29:45.147Z,1.6
2023-01-20T11:30:54.875Z,1.4
2023-01-20T11:32:06.584Z,1.7
2023-01-20T11:33:16.577Z,1.4
2023-01-20T11:34:28.438Z,1.6
2023-01-20T11:35:38.535Z,1.7
2023-01-20T11:36:50.301Z,2
2023-01-20T11:38:02.137Z,1.6
2023-01-20T11:39:13.002Z,1.7
2023-01-20T11:40:22.832Z,1.8
2023-01-20T11:41:33.760Z,1.6
2023-01-20T11:42:42.543Z,1.8
2023-01-20T11:43:55.039Z,2
2023-01-20T11:45:20.635Z,1.9
2023-01-20T11:46:17.400Z,1.7
2023-01-20T11:47:28.042Z,1.5
2023-01-20T11:48:37.360Z,1.1
2023-01-20T11:49:50.869Z,1.5
2023-01-20T11:50:59.812Z,1.4
2023-01-20T11:52:08.408Z,1.6
2023-01-20T11:53:20.121Z,1.3
2023-01-20T11:54:30.498Z,1.4
2023-01-20T11:55:41.895Z,1.7
2023-01-20T11:56:53.590Z,1.1
2023-01-20T11:58:04.831Z,1.4
2023-01-20T11:59:16.178Z,1.4
2023-01-20T12:00:27.847Z,1.4
2023-01-20T12:01:39.570Z,1.7
2023-01-20T12:02:50.367Z,1.4
2023-01-20T12:04:02.173Z,1.2
2023-01-20T12:05:12.840Z,1.6
2023-01-20T12:06:24.153Z,1.1
2023-01-20T12:07:35.996Z,1.3
2023-01-20T12:08:46.896Z,1.5
2023-01-20T12:09:58.285Z,1.1
2023-01-20T12:11:09.713Z,1.2
2023-01-20T12:12:19.395Z,1.1
2023-01-20T12:13:28.086Z,1.1
2023-01-20T12:14:36.782Z,1.1
2023-01-20T12:15:46.447Z,1.3
2023-01-20T12:16:54.110Z,1.4
2023-01-20T12:18:04.771Z,1.2
2023-01-20T12:19:13.609Z,1.3
2023-01-20T12:20:22.293Z,1.5
2023-01-20T12:21:31.971Z,1.2
2023-01-20T12:22:41.902Z,1.8
2023-01-20T12:23:51.579Z,1.8
2023-01-20T12:25:01.287Z,1.8
2023-01-20T12:26:10.097Z,2.2
2023-01-20T12:27:19.743Z,1.4
2023-01-20T12:28:28.424Z,1.3
2023-01-20T12:29:38.112Z,1.4
2023-01-20T12:30:50.895Z,1.2
2023-01-20T12:32:02.643Z,1.2
2023-01-20T12:33:16.470Z,1.6
2023-01-20T12:34:25.240Z,1.3
2023-01-20T12:35:33.972Z,1.5
2023-01-20T12:36:44.998Z,1
2023-01-20T12:37:55.730Z,1.7
2023-01-20T12:39:06.117Z,1.6
2023-01-20T12:40:15.106Z,1.7
2023-01-20T12:41:24.455Z,2.2
2023-01-20T12:42:35.092Z,1.7
2023-01-20T12:43:44.770Z,1.9
2023-01-20T12:44:54.456Z,1.6
2023-01-20T12:46:04.150Z,1.3
2023-01-20T12:47:11.781Z,1.5
2023-01-20T12:48:21.481Z,1.4
2023-01-20T12:49:31.145Z,1.4
2023-01-20T12:50:38.804Z,1.2
2023-01-20T12:51:48.494Z,1
2023-01-20T12:52:57.164Z,1.6
2023-01-20T12:54:05.838Z,1.6
2023-01-20T12:55:15.518Z,1.4
2023-01-20T12:56:24.188Z,1.5
2023-01-20T12:57:33.840Z,1.7
2023-01-20T12:58:43.497Z,1.7
2023-01-20T12:59:51.195Z,2.5
2023-01-20T13:01:00.883Z,1.9
2023-01-20T13:02:09.553Z,1.7
2023-01-20T13:03:19.243Z,1.7
2023-01-20T13:04:28.891Z,1.8
2023-01-20T13:05:37.602Z,1.6
2023-01-20T13:06:47.267Z,1.7
2023-01-20T13:07:56.975Z,1.4
2023-01-20T13:09:06.636Z,1.5
2023-01-20T13:10:16.748Z,1.9
2023-01-20T13:11:25.065Z,1.7
2023-01-20T13:12:34.746Z,2.1
2023-01-20T13:13:56.221Z,1.9
2023-01-20T13:14:54.013Z,2.3
2023-01-20T13:16:03.743Z,2.2
2023-01-20T13:17:13.424Z,2.1
2023-01-20T13:18:22.117Z,1.8
2023-01-20T13:19:31.784Z,2.1
2023-01-20T13:20:40.442Z,2
2023-01-20T13:22:03.023Z,1.8
2023-01-20T13:23:00.769Z,2
2023-01-20T13:24:09.431Z,1.6
2023-01-20T13:25:18.183Z,2
2023-01-20T13:26:27.756Z,1.7
2023-01-20T13:27:35.443Z,1.9
2023-01-20T13:28:45.168Z,1.7
2023-01-20T13:29:53.802Z,2.1
2023-01-20T13:31:03.654Z,1.8
2023-01-20T13:32:12.187Z,2.4
2023-01-20T13:33:19.856Z,2.2
2023-01-20T13:34:29.561Z,1.9
2023-01-20T13:35:38.208Z,2.4
2023-01-20T13:36:47.883Z,2.4
2023-01-20T13:37:57.546Z,2
2023-01-20T13:39:07.207Z,2.4
2023-01-20T13:40:16.935Z,2.4
2023-01-20T13:41:26.603Z,2.7
2023-01-20T13:42:36.274Z,2.2
2023-01-20T13:43:45.944Z,2.6
2023-01-20T13:44:54.617Z,2.5
2023-01-20T13:46:04.044Z,1.9
2023-01-20T13:47:12.648Z,2.6
2023-01-20T13:48:21.320Z,2.4
2023-01-20T13:49:30.002Z,2.4
2023-01-20T13:50:39.671Z,2.1
2023-01-20T13:51:47.390Z,2.3
2023-01-20T13:52:57.054Z,2.8
2023-01-20T13:54:05.721Z,3.3
2023-01-20T13:55:14.613Z,2.7
2023-01-20T13:56:24.133Z,2.8
2023-01-20T13:57:33.853Z,2.1
2023-01-20T13:58:42.506Z,3
2023-01-20T13:59:52.184Z,2.7
2023-01-20T14:00:59.960Z,2.9
2023-01-20T14:02:09.564Z,3.3
2023-01-20T14:03:19.183Z,3.1
2023-01-20T14:04:27.857Z,2.9
2023-01-20T14:05:37.519Z,2.7
2023-01-20T14:06:46.201Z,3.1
2023-01-20T14:07:55.886Z,2.8
2023-01-20T14:09:07.849Z,3.1
2023-01-20T14:10:16.754Z,2.8
2023-01-20T14:11:26.086Z,2.8
2023-01-20T14:12:35.726Z,2.5
2023-01-20T14:13:44.450Z,2.7
2023-01-20T14:14:54.145Z,2.7
2023-01-20T14:16:01.913Z,2.4
2023-01-20T14:17:11.515Z,2.6
2023-01-20T14:18:20.179Z,3.3
2023-01-20T14:19:28.842Z,3.2
2023-01-20T14:20:38.488Z,2
2023-01-20T14:21:48.136Z,2.2
2023-01-20T14:22:57.793Z,2.2
2023-01-20T14:24:07.450Z,2.4
2023-01-20T14:25:16.408Z,2.6
2023-01-20T14:26:26.812Z,2.8
2023-01-20T14:27:34.445Z,2.5
2023-01-20T14:28:44.132Z,3.2
2023-01-20T14:29:53.793Z,1.9
2023-01-20T14:31:01.491Z,2.6
2023-01-20T14:32:11.159Z,3.2
2023-01-20T14:33:19.785Z,3.2
2023-01-20T14:34:28.830Z,3.1
2023-01-20T14:35:38.502Z,2.2
2023-01-20T14:36:46.151Z,2.7
2023-01-20T14:37:55.848Z,2.8
2023-01-20T14:39:05.531Z,3.2
2023-01-20T14:40:14.642Z,2.7
2023-01-20T14:41:23.932Z,2.2
2023-01-20T14:42:32.605Z,3.2
2023-01-20T14:43:41.270Z,3.1
2023-01-20T14:44:50.941Z,3.3
2023-01-20T14:45:59.658Z,3.6
2023-01-20T14:47:08.312Z,3.1
2023-01-20T14:48:32.839Z,2.5
2023-01-20T14:49:26.685Z,3
2023-01-20T14:50:36.372Z,3.1
2023-01-20T14:51:45.990Z,3.2
2023-01-20T14:52:54.726Z,2.7
2023-01-20T14:54:04.416Z,2.8
2023-01-20T14:55:12.133Z,2.9
2023-01-20T14:56:20.795Z,2.8
2023-01-20T14:57:30.450Z,3.1
2023-01-20T14:58:38.121Z,2.9
2023-01-20T14:59:47.827Z,2.2
2023-01-20T15:00:56.543Z,2.3
2023-01-20T15:02:05.202Z,3.7
2023-01-20T15:03:14.905Z,3.2
2023-01-20T15:04:23.527Z,3.6
2023-01-20T15:05:33.189Z,2.5
2023-01-20T15:06:42.891Z,2.7
2023-01-20T15:07:53.556Z,3.4
2023-01-20T15:09:06.828Z,3
2023-01-20T15:10:13.999Z,3.3
2023-01-20T15:11:22.546Z,4.1
2023-01-20T15:12:32.230Z,2.8
2023-01-20T15:13:40.864Z,2.7
2023-01-20T15:14:49.533Z,3.1
2023-01-20T15:15:59.263Z,3.2
2023-01-20T15:17:07.926Z,3.1
2023-01-20T15:18:17.598Z,3.2
2023-01-20T15:19:26.390Z,2.6
2023-01-20T15:20:34.087Z,3
2023-01-20T15:21:43.777Z,2.6
2023-01-20T15:22:52.451Z,4
2023-01-20T15:24:02.130Z,2.8
2023-01-20T15:25:11.786Z,3.4
2023-01-20T15:26:20.433Z,3.2
2023-01-20T15:27:30.117Z,3.1
2023-01-20T15:28:38.776Z,3.4
2023-01-20T15:29:47.464Z,2.8
2023-01-20T15:30:57.218Z,3.2
2023-01-20T15:32:04.839Z,3.2
2023-01-20T15:33:14.528Z,3.1
2023-01-20T15:34:24.183Z,3.3
2023-01-20T15:35:31.873Z,2.8
2023-01-20T15:36:41.515Z,3.2
2023-01-20T15:37:50.183Z,3.5
2023-01-20T15:38:57.834Z,3.4
2023-01-20T15:40:07.494Z,3.8
2023-01-20T15:41:17.165Z,3.3
2023-01-20T15:42:25.997Z,3.3
2023-01-20T15:43:35.651Z,4.1
2023-01-20T15:44:44.301Z,4.6
2023-01-20T15:45:53.979Z,2.9
2023-01-20T15:47:03.631Z,2.8
2023-01-20T15:48:12.291Z,3.5
2023-01-20T15:49:21.952Z,3
2023-01-20T15:50:29.605Z,2.5
2023-01-20T15:51:39.292Z,2.7
2023-01-20T15:52:48.958Z,3.5
2023-01-20T15:53:57.649Z,3.1
2023-01-20T15:55:07.317Z,2.9
2023-01-20T15:56:16.989Z,2.7
2023-01-20T15:57:24.655Z,2.6
2023-01-20T15:58:34.348Z,3.2
2023-01-20T15:59:42.012Z,2.9
2023-01-20T16:00:50.721Z,3.2